Time;durP1;ratioP1;P1;durP2;ratioP2;P2;SDS_P1;SDS_P2;PMS_P1;PMS_P2;Temp;Humidity;BMP_temperature;BMP_pressure;BME280_temperature;BME280_humidity;BME280_pressure;Samples;Min_cycle;Max_cycle;Signal;HPM_P1;HPM_P2
2023/04/24 00:02:46;;;;;;;3.95;1.40;;;10.70;99.90;;;;;;6191782;23;20447;-87
2023/04/24 00:05:32;;;;;;;2.30;1.27;;;;;;;;;;6191854;23;20019;-87
2023/04/24 00:08:18;;;;;;;2.30;1.40;;;;;;;;;;6191981;23;20011;-87
2023/04/24 00:11:03;;;;;;;2.85;1.48;;;;;;;;;;6214253;23;20096;-87
2023/04/24 00:13:47;;;;;;;2.35;1.25;;;;;;;;;;6191843;23;20012;-87
2023/04/24 00:16:32;;;;;;;2.15;1.27;;;;;;;;;;6191226;23;20019;-87
2023/04/24 00:19:16;;;;;;;4.88;1.35;;;;;;;;;;6214091;23;20062;-87
2023/04/24 00:22:01;;;;;;;3.60;1.25;;;;;;;;;;6191840;23;20070;-87
2023/04/24 00:24:46;;;;;;;2.65;1.40;;;;;;;;;;6214107;23;20039;-86
2023/04/24 00:27:30;;;;;;;3.03;1.55;;;;;;;;;;6213627;23;20019;-87
2023/04/24 00:30:15;;;;;;;4.00;1.70;;;;;;;;;;6191497;23;20063;-87
2023/04/24 00:32:59;;;;;;;2.60;1.50;;;;;;;;;;6191570;23;20019;-88
2023/04/24 00:35:44;;;;;;;2.22;1.60;;;;;;;;;;6213368;23;20031;-87
2023/04/24 00:38:29;;;;;;;2.25;1.50;;;;;;;;;;6212998;23;20387;-87
2023/04/24 00:41:14;;;;;;;2.13;1.30;;;;;;;;;;6170876;23;20063;-87
2023/04/24 00:43:58;;;;;;;3.30;1.50;;;;;;;;;;6214149;23;20016;-86
2023/04/24 00:46:43;;;;;;;2.55;1.40;;;;;;;;;;6213528;23;20120;-87
2023/04/24 00:49:28;;;;;;;5.63;1.52;;;;;;;;;;6170184;23;20020;-87
2023/04/24 00:52:17;;;;;;;2.30;1.48;;;;;;;;;;6213741;23;20347;-87
2023/04/24 00:55:02;;;;;;;3.00;1.92;;;;;;;;;;6214105;23;20036;-87
2023/04/24 00:57:48;;;;;;;2.90;2.00;;;10.20;99.90;;;;;;6213484;23;20011;-87
2023/04/24 01:00:32;;;;;;;3.30;2.30;;;;;;;;;;6190862;23;20096;-87
2023/04/24 01:03:18;;;;;;;6.65;2.20;;;10.20;99.90;;;;;;6191495;23;20031;-86
2023/04/24 01:06:03;;;;;;;2.90;2.13;;;;;;;;;;6191569;23;20019;-86
2023/04/24 01:08:48;;;;;;;3.90;2.53;;;;;;;;;;6190726;23;20023;-87
2023/04/24 01:11:32;;;;;;;2.90;2.20;;;;;;;;;;6190608;23;20070;-87
2023/04/24 01:14:17;;;;;;;3.88;2.70;;;;;;;;;;6191405;23;20470;-87
2023/04/24 01:17:02;;;;;;;4.00;2.90;;;;;;;;;;6191472;23;20680;-86
2023/04/24 01:19:47;;;;;;;4.70;3.25;;;;;;;;;;6169993;23;20120;-86
2023/04/24 01:22:36;;;;;;;4.22;2.90;;;10.20;99.90;;;;;;6213120;23;20067;-86
2023/04/24 01:25:20;;;;;;;4.32;3.45;;;;;;;;;;6191175;23;20015;-86
2023/04/24 01:28:05;;;;;;;4.03;3.03;;;;;;;;;;6191022;23;20011;-86
2023/04/24 01:30:50;;;;;;;5.22;3.20;;;;;;;;;;6190302;23;20579;-86
2023/04/24 01:33:35;;;;;;;4.75;3.40;;;;;;;;;;6213045;23;20019;-86
2023/04/24 01:36:20;;;;;;;4.90;3.65;;;;;;;;;;6190910;23;20023;-86
2023/04/24 01:39:04;;;;;;;6.70;4.18;;;;;;;;;;6191199;23;20098;-87
2023/04/24 01:41:50;;;;;;;5.68;4.57;;;;;;;;;;6190637;23;20020;-86
2023/04/24 01:44:35;;;;;;;7.97;4.05;;;;;;;;;;6212962;23;20019;-86
2023/04/24 01:47:19;;;;;;;5.82;4.43;;;;;;;;;;6213456;23;20066;-86
2023/04/24 01:50:05;;;;;;;6.57;4.85;;;;;;;;;;6191023;23;20063;-86
2023/04/24 01:52:50;;;;;;;7.03;4.90;;;;;;;;;;6169584;23;20096;-86
2023/04/24 01:55:34;;;;;;;6.18;5.07;;;;;;;;;;6190468;23;20059;-87
2023/04/24 01:58:19;;;;;;;7.45;5.47;;;;;;;;;;6213600;23;20020;-86
2023/04/24 02:01:04;;;;;;;7.07;5.55;;;;;;;;;;6191234;23;20023;-86
2023/04/24 02:03:49;;;;;;;7.78;6.00;;;;;;;;;;6212912;23;20031;-87
2023/04/24 02:06:34;;;;;;;8.63;6.38;;;;;;;;;;6213432;23;20035;-87
2023/04/24 02:09:19;;;;;;;7.38;5.82;;;;;;;;;;6191210;23;20015;-87
2023/04/24 02:12:03;;;;;;;9.38;6.78;;;;;;;;;;6190842;23;20023;-86
2023/04/24 02:14:48;;;;;;;9.43;6.88;;;;;;;;;;6190522;23;20048;-86
2023/04/24 02:17:32;;;;;;;12.43;7.32;;;;;;;;;;6213549;23;20451;-86
2023/04/24 02:20:17;;;;;;;9.75;7.30;;;;;;;;;;6191096;23;20112;-87
2023/04/24 02:23:02;;;;;;;9.73;7.82;;;;;;;;;;6190940;23;20489;-87
2023/04/24 02:25:47;;;;;;;8.90;7.05;;;;;;;;;;6190232;23;20054;-86
2023/04/24 02:28:31;;;;;;;10.52;7.57;;;;;;;;;;6170276;23;20063;-85
2023/04/24 02:31:16;;;;;;;9.82;7.00;;;;;;;;;;6190884;23;20351;-86
2023/04/24 02:34:01;;;;;;;11.23;7.53;;;;;;;;;;6190480;23;20027;-85
2023/04/24 02:36:45;;;;;;;10.55;7.30;;;;;;;;;;6212860;23;20027;-85
2023/04/24 02:39:30;;;;;;;10.70;7.88;;;;;;;;;;6213498;23;20457;-86
2023/04/24 02:42:15;;;;;;;9.90;8.15;;;;;;;;;;6213653;23;20036;-86
2023/04/24 02:45:00;;;;;;;13.10;9.02;;;;;;;;;;6169654;23;20040;-86
2023/04/24 02:47:44;;;;;;;11.43;8.95;;;;;;;;;;6190188;23;20467;-86
2023/04/24 02:50:29;;;;;;;11.93;9.68;;;;;;;;;;6190947;23;20051;-85
2023/04/24 02:53:14;;;;;;;12.00;9.95;;;;;;;;;;6213276;23;20020;-86
2023/04/24 02:55:59;;;;;;;12.20;9.70;;;;;;;;;;6212654;23;20031;-86
2023/04/24 02:58:43;;;;;;;11.52;9.35;;;;;;;;;;6212497;23;20566;-86
2023/04/24 03:01:28;;;;;;;12.38;9.50;;;;;;;;;;6191405;23;20408;-87
2023/04/24 03:04:12;;;;;;;11.43;9.13;;;;;;;;;;6171544;23;20035;-87
2023/04/24 03:06:57;;;;;;;11.18;9.77;;;;;;;;;;6214408;23;20463;-86
2023/04/24 03:09:41;;;;;;;12.80;9.27;;;;;;;;;;6192690;23;20019;-86
2023/04/24 03:12:26;;;;;;;9.88;8.77;;;;;;;;;;6214717;23;20019;-86
2023/04/24 03:15:11;;;;;;;9.75;8.32;;;;;;;;;;6171725;23;20070;-85
2023/04/24 03:17:56;;;;;;;9.48;7.68;;;;;;;;;;6170738;23;20019;-86
2023/04/24 03:20:41;;;;;;;11.20;8.77;;;;;;;;;;6171385;23;20027;-86
2023/04/24 03:23:25;;;;;;;11.38;7.93;;;;;;;;;;6192424;23;20016;-85
2023/04/24 03:26:10;;;;;;;13.88;8.23;;;;;;;;;;6171053;23;20063;-86
2023/04/24 03:28:56;;;;;;;8.30;6.95;;;;;;;;;;6214158;23;20059;-86
2023/04/24 03:31:40;;;;;;;9.32;7.75;;;;;;;;;;6171515;23;20027;-86
2023/04/24 03:34:25;;;;;;;8.10;6.75;;;;;;;;;;6214846;23;20047;-86
2023/04/24 03:37:10;;;;;;;8.80;7.03;;;;;;;;;;6214654;23;20062;-86
2023/04/24 03:39:54;;;;;;;10.30;6.93;;;;;;;;;;6191442;23;20351;-86
2023/04/24 03:42:39;;;;;;;8.70;6.70;;;;;;;;;;6192144;23;20012;-85
2023/04/24 03:45:24;;;;;;;7.43;5.93;;;;;;;;;;6192293;23;20019;-86
2023/04/24 03:48:08;;;;;;;7.15;5.50;;;;;;;;;;6213972;23;20019;-85
2023/04/24 03:50:53;;;;;;;7.97;5.25;;;;;;;;;;6213921;23;20024;-85
2023/04/24 03:53:37;;;;;;;8.90;6.05;;;;;;;;;;6214595;23;20070;-86
2023/04/24 03:56:22;;;;;;;7.68;4.88;;;;;;;;;;6191969;23;20016;-85
2023/04/24 03:59:06;;;;;;;6.72;5.32;;;;;;;;;;6191432;23;20016;-85
2023/04/24 04:01:51;;;;;;;7.07;5.20;;;;;;;;;;6170330;23;20031;-87
2023/04/24 04:04:35;;;;;;;7.03;5.50;;;;;;;;;;6214501;23;20019;-85
2023/04/24 04:07:20;;;;;;;8.60;5.47;;;;;;;;;;6192044;23;20493;-85
2023/04/24 04:10:06;;;;;;;8.23;5.55;;;;;;;;;;6191374;23;20058;-85
2023/04/24 04:12:51;;;;;;;9.20;6.63;;;;;;;;;;6191107;23;20406;-87
2023/04/24 04:15:35;;;;;;;8.05;6.40;;;;;;;;;;6191988;23;20016;-85
2023/04/24 04:18:20;;;;;;;9.82;5.85;;;;;;;;;;6214380;23;20015;-86
2023/04/24 04:21:05;;;;;;;8.88;6.68;;;;;;;;;;6191010;23;20020;-86
2023/04/24 04:23:49;;;;;;;8.27;6.35;;;;;;;;;;6171014;23;20059;-86
2023/04/24 04:26:35;;;;;;;9.77;6.53;;;;;;;;;;6191705;23;20020;-85
2023/04/24 04:29:20;;;;;;;10.27;6.80;;;;;;;;;;6191757;23;20067;-86
2023/04/24 04:32:04;;;;;;;9.00;7.15;;;;;;;;;;6190927;23;20023;-85
2023/04/24 04:34:49;;;;;;;9.85;6.32;;;;;;;;;;6191553;23;20530;-86
2023/04/24 04:37:34;;;;;;;9.25;6.38;;;;;;;;;;6191583;23;20087;-86
2023/04/24 04:40:18;;;;;;;9.48;6.18;;;;;;;;;;6190752;23;20497;-86
2023/04/24 04:43:03;;;;;;;7.80;5.60;;;;;;;;;;6213253;23;20027;-86
2023/04/24 04:45:48;;;;;;;7.72;4.07;;;;;;;;;;6191663;23;20074;-85
2023/04/24 04:48:32;;;;;;;6.10;4.57;;;;;;;;;;6213618;23;20016;-86
2023/04/24 04:51:17;;;;;;;4.28;3.47;;;;;;;;;;6190802;23;20051;-85
2023/04/24 04:54:02;;;;;;;5.30;2.80;;;;;;;;;;6190680;23;20088;-86
2023/04/24 04:56:46;;;;;;;3.20;2.42;;;;;;;;;;6191587;23;20063;-87
2023/04/24 04:59:31;;;;;;;3.08;2.03;;;;;;;;;;6190581;23;20024;-86
2023/04/24 05:02:15;;;;;;;2.50;1.65;;;;;;;;;;6169564;23;20024;-86
2023/04/24 05:05:00;;;;;;;4.40;2.03;;;;;;;;;;6190642;23;20023;-86
2023/04/24 05:07:45;;;;;;;3.40;1.70;;;;;;;;;;6190903;23;20066;-86
2023/04/24 05:10:30;;;;;;;4.22;2.20;;;;;;;;;;6213712;23;20019;-86
2023/04/24 05:13:15;;;;;;;3.30;1.83;;;;;;;;;;6191044;23;20024;-87
2023/04/24 05:15:59;;;;;;;2.88;2.00;;;;;;;;;;6212695;23;20066;-88
2023/04/24 05:18:44;;;;;;;2.70;1.90;;;;;;;;;;6213569;23;20055;-87
2023/04/24 05:21:30;;;;;;;2.83;1.80;;;;;;;;;;6171045;23;20100;-86
2023/04/24 05:24:15;;;;;;;2.95;2.22;;;;;;;;;;6169777;23;20383;-88
2023/04/24 05:27:00;;;;;;;3.17;2.20;;;;;;;;;;6191270;23;20015;-88
2023/04/24 05:29:45;;;;;;;3.67;2.25;;;;;;;;;;6213684;23;20070;-91
2023/04/24 05:32:29;;;;;;;3.97;2.38;;;;;;;;;;6191356;23;20498;-92
2023/04/24 05:35:14;;;;;;;4.32;3.10;;;;;;;;;;6190533;23;20036;-89
2023/04/24 05:37:58;;;;;;;4.00;2.90;;;;;;;;;;6170482;23;20455;-89
2023/04/24 05:40:43;;;;;;;3.60;2.28;;;;;;;;;;6170785;23;20023;-89
2023/04/24 05:43:28;;;;;;;4.03;2.90;;;;;;;;;;6213366;23;20016;-88
2023/04/24 05:46:13;;;;;;;4.40;2.90;;;;;;;;;;6190620;23;20015;-89
2023/04/24 05:48:57;;;;;;;4.55;3.13;;;;;;;;;;6191375;23;20081;-93
2023/04/24 05:51:42;;;;;;;4.47;2.90;;;;;;;;;;6190063;23;20054;-89
2023/04/24 05:54:26;;;;;;;3.83;2.60;;;;;;;;;;6212299;23;20030;-88
2023/04/24 05:57:11;;;;;;;4.10;2.33;;;;;;;;;;6190334;23;20023;-88
2023/04/24 05:59:55;;;;;;;5.57;2.50;;;;;;;;;;6169284;23;20070;-88
2023/04/24 06:02:40;;;;;;;5.90;2.97;;;;;;;;;;6190810;23;20066;-88
2023/04/24 06:05:25;;;;;;;3.45;2.58;;;;;;;;;;6190171;23;20691;-89
2023/04/24 06:08:11;;;;;;;5.72;2.80;;;;;;;;;;6169103;23;20015;-89
2023/04/24 06:10:55;;;;;;;4.38;2.33;;;;;;;;;;6190829;23;20083;-89
2023/04/24 06:13:40;;;;;;;5.90;3.25;;;;;;;;;;6213062;23;20520;-88
2023/04/24 06:16:25;;;;;;;3.15;1.88;;;;;;;;;;6212981;23;20062;-89
2023/04/24 06:19:10;;;;;;;3.25;1.50;;;;;;;;;;6168909;23;20019;-88
2023/04/24 06:21:55;;;;;;;3.05;1.60;;;;;;;;;;6169781;23;20019;-90
2023/04/24 06:24:42;;;;;;;2.83;1.50;;;;;;;;;;6213324;23;20387;-88
2023/04/24 06:27:26;;;;;;;3.30;1.80;;;;;;;;;;6211805;23;20015;-89
2023/04/24 06:30:11;;;;;;;3.17;1.80;;;;;;;;;;6189964;23;20028;-89
2023/04/24 06:32:56;;;;;;;3.33;2.20;;;;;;;;;;6212698;23;20027;-88
2023/04/24 06:35:40;;;;;;;4.25;2.08;;;;;;;;;;6213455;23;20340;-88
2023/04/24 06:38:25;;;;;;;6.03;2.70;;;;;;;;;;6171022;23;20016;-88
2023/04/24 06:41:10;;;;;;;6.63;2.97;;;;;;;;;;6193226;23;20031;-88
2023/04/24 06:43:55;;;;;;;7.40;3.63;;;;;;;;;;6192822;23;20015;-88
2023/04/24 06:46:39;;;;;;;8.13;3.53;;;;;;;;;;6215227;23;20071;-88
2023/04/24 06:49:24;;;;;;;6.50;3.92;;;;;;;;;;6214805;23;20027;-89
2023/04/24 06:52:09;;;;;;;8.52;4.78;;;;;;;;;;6192571;23;20351;-90
2023/04/24 06:55:00;;;;;;;8.63;4.82;;;10.20;99.90;;;;;;6214963;23;20043;-88
2023/04/24 06:57:45;;;;;;;8.50;4.43;;;;;;;;;;6171448;23;20189;-89
2023/04/24 07:00:29;;;;;;;9.38;5.43;;;;;;;;;;6214397;23;20749;-89
2023/04/24 07:03:14;;;;;;;9.93;4.90;;;;;;;;;;6192020;23;20062;-87
2023/04/24 07:05:59;;;;;;;10.18;5.30;;;;;;;;;;6192389;23;20339;-88
2023/04/24 07:08:43;;;;;;;6.57;4.20;;;;;;;;;;6192510;23;20039;-89
2023/04/24 07:11:29;;;;;;;6.95;4.22;;;;;;;;;;6214206;23;20467;-90
2023/04/24 07:14:15;;;;;;;8.30;4.38;;;;;;;;;;6172129;23;20020;-91
2023/04/24 07:16:59;;;;;;;5.38;3.92;;;;;;;;;;6192993;23;20438;-91
2023/04/24 07:19:44;;;;;;;7.68;3.72;;;;;;;;;;6192803;23;20019;-93
2023/04/24 07:22:28;;;;;;;5.65;4.00;;;;;;;;;;6170178;23;20071;-90
2023/04/24 07:25:13;;;;;;;5.22;3.47;;;;;;;;;;6214559;23;20015;-90
2023/04/24 07:27:57;;;;;;;5.90;3.10;;;;;;;;;;6216109;23;20066;-90
2023/04/24 07:30:43;;;;;;;6.63;2.92;;;;;;;;;;6193153;23;20020;-91
2023/04/24 07:33:28;;;;;;;4.65;2.55;;;;;;;;;;6214130;23;20059;-92
2023/04/24 07:36:16;;;;;;;5.32;2.47;;;;;;;;;;6214738;23;20067;-92
2023/04/24 07:39:01;;;;;;;4.57;2.78;;;;;;;;;;6192231;23;20019;-91
2023/04/24 07:41:48;;;;;;;4.63;2.35;;;;;;;;;;6192270;23;20067;-90
2023/04/24 07:44:33;;;;;;;8.45;2.60;;;;;;;;;;6191609;23;20462;-91
2023/04/24 07:47:17;;;;;;;7.00;2.70;;;;;;;;;;6192187;23;20336;-90
2023/04/24 07:50:02;;;;;;;8.25;2.53;;;;;;;;;;6192227;23;20090;-90
2023/04/24 07:52:46;;;;;;;5.97;2.75;;;;;;;;;;6214320;23;20035;-91
2023/04/24 07:55:31;;;;;;;8.30;2.80;;;;;;;;;;6191569;23;20024;-91
2023/04/24 07:58:16;;;;;;;3.45;2.05;;;;;;;;;;6214599;23;20070;-87
2023/04/24 08:01:01;;;;;;;9.30;2.35;;;;;;;;;;6215526;23;20031;-88
2023/04/24 08:03:45;;;;;;;4.93;2.10;;;;;;;;;;6170652;23;20070;-88
2023/04/24 08:06:31;;;;;;;8.63;2.65;;;;;;;;;;6213802;23;20096;-89
2023/04/24 08:09:16;;;;;;;7.80;2.63;;;;;;;;;;6191786;23;20054;-88
2023/04/24 08:12:02;;;;;;;7.97;3.60;;;;;;;;;;6172077;23;20024;-88
2023/04/24 08:14:46;;;;;;;10.20;4.40;;;;;;;;;;6172384;23;20019;-87
2023/04/24 08:17:31;;;;;;;10.57;5.25;;;;;;;;;;6171657;23;20028;-87
2023/04/24 08:20:15;;;;;;;15.25;6.60;;;;;;;;;;6192957;23;20011;-88
2023/04/24 08:23:00;;;;;;;14.85;8.57;;;;;;;;;;6192747;23;20020;-87
2023/04/24 08:25:45;;;;;;;20.10;9.02;;;;;;;;;;6194919;23;20075;-87
2023/04/24 08:28:29;;;;;;;20.42;9.85;;;;;;;;;;6191708;23;20036;-86
2023/04/24 08:31:14;;;;;;;19.40;9.63;;;;;;;;;;6191982;23;20677;-90
2023/04/24 08:33:59;;;;;;;22.17;11.45;;;;;;;;;;6214434;23;20015;-87
2023/04/24 08:36:44;;;;;;;23.25;11.90;;;;;;;;;;6191166;23;20026;-87
2023/04/24 08:39:28;;;;;;;32.67;11.90;;;;;;;;;;6191221;23;20470;-88
2023/04/24 08:42:13;;;;;;;25.77;11.93;;;;;;;;;;6170807;23;20063;-88
2023/04/24 08:44:58;;;;;;;23.73;12.40;;;;;;;;;;6191548;23;20011;-89
2023/04/24 08:47:43;;;;;;;27.10;12.25;;;;;;;;;;6213750;23;20015;-88
2023/04/24 08:50:29;;;;;;;21.85;11.77;;;;;;;;;;6191628;23;20382;-88
2023/04/24 08:53:14;;;;;;;23.80;12.07;;;9.40;99.90;;;;;;6213918;23;20113;-88
2023/04/24 08:56:01;;;;;;;25.45;10.98;;;;;;;;;;6191784;23;20020;-88
2023/04/24 08:58:46;;;;;;;20.70;12.35;;;;;;;;;;6190492;23;20058;-89
2023/04/24 09:01:33;;;;;;;22.48;11.70;;;9.30;99.90;;;;;;6190989;23;20340;-88
2023/04/24 09:04:19;;;;;;;25.75;12.30;;;;;;;;;;6170572;23;20015;-88
2023/04/24 09:07:05;;;;;;;20.38;11.50;;;;;;;;;;6191372;23;20458;-87
2023/04/24 09:09:51;;;;;;;22.63;12.50;;;9.20;99.90;;;;;;6213338;23;20347;-88
2023/04/24 09:12:36;;;;;;;22.10;12.65;;;;;;;;;;6169907;23;20513;-88
2023/04/24 09:15:21;;;;;;;25.92;14.38;;;;;;;;;;6213960;23;20015;-87
2023/04/24 09:18:06;;;;;;;25.02;13.15;;;;;;;;;;6191161;23;20071;-87
2023/04/24 09:21:01;;;;;;;22.00;12.85;;;;;;;;;;6190607;23;20061;-88
2023/04/24 09:23:46;;;;;;;21.92;12.57;;;;;;;;;;6169931;23;20059;-88
2023/04/24 09:26:32;;;;;;;20.75;12.27;;;;;;;;;;6191479;23;20016;-87
2023/04/24 09:29:17;;;;;;;18.95;12.65;;;;;;;;;;6213711;23;20016;-87
2023/04/24 09:32:18;;;;;;;22.50;13.07;;;;;;;;;;6191371;23;20155;-88
2023/04/24 09:35:10;;;;;;;25.75;13.40;;;;;;;;;;6213666;23;20011;-87
2023/04/24 09:37:58;;;;;;;23.13;12.43;;;;;;;;;;6190553;23;20070;-88
2023/04/24 09:40:42;;;;;;;23.50;11.57;;;;;;;;;;6212439;23;20027;-88
2023/04/24 09:43:27;;;;;;;26.52;10.05;;;;;;;;;;6190436;23;20058;-87
2023/04/24 09:46:13;;;;;;;18.85;9.98;;;;;;;;;;6190795;23;20068;-86
2023/04/24 09:48:57;;;;;;;19.58;9.60;;;;;;;;;;6212437;23;20062;-89
2023/04/24 09:51:42;;;;;;;23.63;9.63;;;;;;;;;;6212417;23;20520;-90
2023/04/24 09:54:27;;;;;;;15.82;8.18;;;;;;;;;;6190387;23;20019;-89
2023/04/24 09:57:12;;;;;;;17.85;8.73;;;;;;;;;;6190272;23;20403;-89
2023/04/24 09:59:57;;;;;;;15.07;8.02;;;;;;;;;;6169576;23;20058;-90
2023/04/24 10:02:44;;;;;;;20.25;8.00;;;;;;;;;;6189538;23;20027;-89
2023/04/24 10:05:29;;;;;;;14.02;6.93;;;;;;;;;;6190436;23;20016;-89
2023/04/24 10:08:14;;;;;;;21.90;7.38;;;;;;;;;;6212573;23;20015;-90
2023/04/24 10:11:00;;;;;;;15.60;7.25;;;;;;;;;;6213193;23;20023;-89
2023/04/24 10:13:45;;;;;;;15.10;6.57;;;;;;;;;;6191803;23;20339;-91
2023/04/24 10:16:30;;;;;;;20.30;7.72;;;;;;;;;;6192591;23;20388;-91
2023/04/24 10:19:15;;;;;;;12.65;7.50;;;;;;;;;;6192166;23;20749;-86
2023/04/24 10:22:00;;;;;;;11.63;5.97;;;;;;;;;;6214393;23;20254;-87
2023/04/24 10:24:45;;;;;;;11.77;6.55;;;;;;;;;;6191396;23;20019;-89
2023/04/24 10:27:31;;;;;;;14.30;5.78;;;;;;;;;;6214625;23;20023;-89
2023/04/24 10:30:16;;;;;;;14.82;4.47;;;;;;;;;;6214695;23;20082;-90
2023/04/24 10:33:01;;;;;;;11.25;4.00;;;;;;;;;;6214122;23;20027;-89
2023/04/24 10:35:48;;;;;;;11.00;4.22;;;;;;;;;;6170347;23;20104;-89
2023/04/24 10:38:35;;;;;;;8.38;3.40;;;;;;;;;;6214481;23;20019;-89
2023/04/24 10:41:22;;;;;;;8.23;3.55;;;;;;;;;;6214631;23;20063;-89
2023/04/24 10:44:15;;;;;;;10.60;3.40;;;;;;;;;;6171608;23;20018;-89
2023/04/24 10:47:00;;;;;;;9.32;3.42;;;;;;;;;;6214056;23;20011;-89
2023/04/24 10:49:44;;;;;;;13.13;5.22;;;;;;;;;;6213921;23;20062;-90
2023/04/24 10:52:44;;;;;;;8.90;2.83;;;;;;;;;;6214468;23;20430;-89
2023/04/24 10:55:43;;;;;;;10.70;3.17;;;;;;;;;;6214310;23;20023;-89
2023/04/24 10:58:39;;;;;;;8.88;2.55;;;;;;;;;;6191907;23;20066;-89
2023/04/24 11:01:29;;;;;;;6.85;2.40;;;9.70;99.90;;;;;;6191707;23;20015;-90
2023/04/24 11:04:13;;;;;;;12.30;2.75;;;;;;;;;;6190646;23;20019;-88
2023/04/24 11:06:58;;;;;;;9.95;2.40;;;;;;;;;;6191468;23;20347;-90
2023/04/24 11:09:44;;;;;;;10.35;2.95;;;;;;;;;;6214521;23;20074;-89
2023/04/24 11:12:28;;;;;;;7.25;2.42;;;;;;;;;;6191608;23;20059;-86
2023/04/24 11:15:17;;;;;;;9.20;2.65;;;;;;;;;;6214258;23;20071;-86
2023/04/24 11:18:02;;;;;;;5.10;2.40;;;;;;;;;;6171293;23;20391;-86
2023/04/24 11:20:47;;;;;;;7.72;2.45;;;;;;;;;;6213883;23;20340;-88
2023/04/24 11:23:37;;;;;;;6.72;2.28;;;;;;;;;;6213765;23;20023;-86
2023/04/24 11:26:30;;;;;;;8.20;2.42;;;;;;;;;;6191571;23;20019;-87
2023/04/24 11:29:15;;;;;;;7.28;2.17;;;;;;;;;;6214006;23;20135;-86
2023/04/24 11:32:14;;;;;;;7.60;2.53;;;;;;;;;;6190546;23;20039;-86
2023/04/24 11:35:00;;;;;;;8.20;2.90;;;;;;;;;;6188926;23;20019;-87
2023/04/24 11:37:45;;;;;;;11.25;2.58;;;;;;;;;;6212325;23;20350;-86
2023/04/24 11:40:30;;;;;;;8.48;2.58;;;;;;;;;;6212155;23;20012;-87
2023/04/24 11:43:18;;;;;;;11.00;3.28;;;;;;;;;;6190356;23;20071;-86
2023/04/24 11:46:03;;;;;;;13.10;2.90;;;;;;;;;;6189885;23;20020;-88
2023/04/24 11:48:47;;;;;;;12.93;2.80;;;;;;;;;;6190430;23;20063;-88
2023/04/24 11:51:32;;;;;;;7.30;2.20;;;;;;;;;;6191522;23;20074;-88
2023/04/24 11:54:16;;;;;;;8.95;1.92;;;;;;;;;;6170053;23;20019;-87
2023/04/24 11:57:04;;;;;;;10.85;2.60;;;;;;;;;;6190747;23;20024;-88
2023/04/24 11:59:49;;;;;;;7.28;1.92;;;;;;;;;;6213918;23;20015;-88
2023/04/24 12:02:33;;;;;;;6.18;2.20;;;;;;;;;;6191039;23;20020;-87
2023/04/24 12:05:25;;;;;;;5.13;1.88;;;;;;;;;;6170409;23;20024;-88
2023/04/24 12:08:10;;;;;;;5.70;1.83;;;;;;;;;;6191020;23;20019;-88
2023/04/24 12:10:55;;;;;;;8.68;1.83;;;;;;;;;;6190303;23;20104;-89
2023/04/24 12:13:40;;;;;;;8.52;1.80;;;;;;;;;;6213796;23;20511;-88
2023/04/24 12:16:27;;;;;;;6.22;1.83;;;;;;;;;;6170361;23;20015;-88
2023/04/24 12:19:12;;;;;;;5.47;2.10;;;;;;;;;;6212814;23;20043;-89
2023/04/24 12:22:00;;;;;;;8.70;1.65;;;;;;;;;;6213012;23;20086;-88
2023/04/24 12:25:12;;;;;;;15.88;2.15;;;;;;;;;;6213360;23;20098;-88
2023/04/24 12:28:06;;;;;;;7.85;2.10;;;;;;;;;;6190374;23;20016;-88
2023/04/24 12:30:51;;;;;;;9.00;2.45;;;;;;;;;;6190952;23;20059;-87
2023/04/24 12:33:36;;;;;;;6.80;2.35;;;;;;;;;;6190548;23;20371;-88
2023/04/24 12:36:22;;;;;;;6.75;1.65;;;;;;;;;;6212798;23;20027;-88
2023/04/24 12:39:15;;;;;;;4.45;1.40;;;;;;;;;;6212793;23;20020;-89
2023/04/24 12:42:01;;;;;;;7.95;2.10;;;;;;;;;;6190131;23;20023;-89
2023/04/24 12:44:47;;;;;;;6.32;1.67;;;;;;;;;;6213471;23;20379;-89
2023/04/24 12:47:33;;;;;;;5.65;1.88;;;;;;;;;;6190743;23;20028;-89
2023/04/24 12:50:18;;;;;;;7.95;2.00;;;;;;;;;;6190155;23;20043;-88
2023/04/24 12:53:02;;;;;;;6.95;1.92;;;;;;;;;;6190357;23;20462;-89
2023/04/24 12:55:52;;;;;;;5.38;1.80;;;;;;;;;;6190710;23;20092;-89
2023/04/24 12:58:37;;;;;;;7.43;1.90;;;;;;;;;;6213236;23;20451;-88
2023/04/24 13:01:21;;;;;;;8.18;2.05;;;;;;;;;;6212641;23;20035;-89
2023/04/24 13:04:06;;;;;;;7.82;1.98;;;;;;;;;;6190128;23;20589;-88
2023/04/24 13:06:51;;;;;;;10.93;2.58;;;;;;;;;;6169876;23;20450;-88
2023/04/24 13:09:35;;;;;;;8.13;2.20;;;;;;;;;;6169660;23;20019;-88
2023/04/24 13:12:20;;;;;;;4.28;1.65;;;;;;;;;;6190064;23;20027;-90
2023/04/24 13:15:05;;;;;;;6.72;1.83;;;;;;;;;;6189982;23;20047;-88
2023/04/24 13:17:50;;;;;;;8.30;1.35;;;;;;;;;;6190012;23;20104;-89
2023/04/24 13:20:35;;;;;;;5.05;1.30;;;;;;;;;;6190466;23;20016;-90
2023/04/24 13:23:20;;;;;;;4.93;1.17;;;;;;;;;;6212493;23;20059;-87
2023/04/24 13:26:05;;;;;;;10.43;3.35;;;;;;;;;;6212332;23;20359;-89
2023/04/24 13:28:50;;;;;;;5.18;1.75;;;;;;;;;;6190586;23;20023;-88
2023/04/24 13:31:34;;;;;;;8.98;1.58;;;;;;;;;;6189804;23;20071;-89
2023/04/24 13:34:19;;;;;;;5.28;1.40;;;;;;;;;;6189654;23;20051;-89
2023/04/24 13:37:04;;;;;;;4.60;1.23;;;;;;;;;;6169897;23;20454;-89
2023/04/24 13:39:49;;;;;;;5.22;1.45;;;;;;;;;;6208823;23;20071;-89
2023/04/24 13:42:34;;;;;;;3.38;1.27;;;;;;;;;;6210508;23;20023;-91
2023/04/24 13:45:18;;;;;;;4.63;1.00;;;;;;;;;;6188637;23;20023;-91
2023/04/24 13:48:03;;;;;;;3.05;0.70;;;;;;;;;;6189757;23;20070;-90
2023/04/24 13:50:49;;;;;;;4.43;1.27;;;;;;;;;;6213219;23;20024;-92
2023/04/24 13:53:37;;;;;;;3.80;1.10;;;;;;;;;;6194243;23;20047;-89
2023/04/24 13:56:23;;;;;;;4.28;1.05;;;;;;;;;;6168354;23;20391;-89
2023/04/24 13:59:08;;;;;;;3.83;1.10;;;;;;;;;;6188682;23;20015;-89
2023/04/24 14:01:53;;;;;;;4.80;1.00;;;;;;;;;;6190317;23;20023;-89
2023/04/24 14:04:37;;;;;;;3.60;1.00;;;;;;;;;;6167684;23;20465;-88
2023/04/24 14:07:22;;;;;;;2.03;0.75;;;;;;;;;;6167678;23;21030;-89
2023/04/24 14:10:07;;;;;;;5.00;1.40;;;;;;;;;;6211668;23;20071;-89
2023/04/24 14:12:52;;;;;;;3.22;1.00;;;;;;;;;;6188611;23;20067;-89
2023/04/24 14:15:37;;;;;;;5.50;1.70;;;;;;;;;;6189769;23;20027;-90
2023/04/24 14:18:24;;;;;;;7.07;1.30;;;;;;;;;;6188730;23;20075;-89
2023/04/24 14:21:09;;;;;;;5.95;1.13;;;;;;;;;;6189198;23;20718;-90
2023/04/24 14:23:53;;;;;;;5.90;1.23;;;;;;;;;;6189604;23;20020;-89
2023/04/24 14:26:38;;;;;;;5.53;1.50;;;;;;;;;;6168287;23;20015;-90
2023/04/24 14:29:22;;;;;;;8.38;1.58;;;;;;;;;;6188664;23;20070;-89
2023/04/24 14:32:08;;;;;;;8.38;1.83;;;;;;;;;;6189183;23;20051;-88
2023/04/24 14:34:53;;;;;;;5.55;1.65;;;;;;;;;;6189371;23;20019;-88
2023/04/24 14:37:40;;;;;;;8.57;1.90;;;;;;;;;;6211625;23;20016;-90
2023/04/24 14:40:25;;;;;;;11.10;2.33;;;;;;;;;;6210849;23;20020;-90
2023/04/24 14:43:10;;;;;;;10.43;1.90;;;;;;;;;;6212695;23;20086;-90
2023/04/24 14:45:55;;;;;;;9.70;2.25;;;;;;;;;;6190309;23;20024;-91
2023/04/24 14:48:39;;;;;;;12.38;3.13;;;;;;;;;;6189727;23;20019;-88
2023/04/24 14:51:25;;;;;;;8.93;2.45;;;;;;;;;;6210588;23;20067;-90
2023/04/24 14:54:10;;;;;;;9.05;2.53;;;;;;;;;;6212611;23;20059;-88
2023/04/24 14:56:56;;;;;;;15.27;2.20;;;;;;;;;;6190128;23;20016;-88
2023/04/24 14:59:41;;;;;;;11.38;2.75;;;;;;;;;;6214645;23;20501;-89
2023/04/24 15:02:25;;;;;;;10.48;2.90;;;;;;;;;;6191158;23;20339;-87
2023/04/24 15:05:10;;;;;;;10.82;2.38;;;;;;;;;;6191796;23;20040;-88
2023/04/24 15:07:55;;;;;;;11.30;2.65;;;;;;;;;;6214472;23;20015;-89
2023/04/24 15:10:40;;;;;;;13.07;2.95;;;;;;;;;;6191466;23;20059;-88
2023/04/24 15:13:24;;;;;;;11.88;2.80;;;;;;;;;;6190238;23;20035;-88
2023/04/24 15:16:09;;;;;;;11.02;2.83;;;;;;;;;;6212917;23;20011;-88
2023/04/24 15:18:53;;;;;;;11.15;2.50;;;;;;;;;;6191049;23;20011;-88
2023/04/24 15:21:41;;;;;;;10.65;2.83;;;;;;;;;;6190557;23;20024;-88
2023/04/24 15:24:25;;;;;;;8.13;2.40;;;;;;;;;;6188510;23;20062;-88
2023/04/24 15:27:11;;;;;;;7.72;2.42;;;;;;;;;;6212977;23;20063;-90
2023/04/24 15:29:55;;;;;;;14.45;4.03;;;;;;;;;;6191289;23;20431;-87
2023/04/24 15:32:40;;;;;;;13.48;3.33;;;;;;;;;;6212840;23;20044;-87
2023/04/24 15:35:25;;;;;;;12.55;3.03;;;;;;;;;;6189816;23;20107;-87
2023/04/24 15:38:10;;;;;;;11.80;2.72;;;;;;;;;;6191180;23;20031;-89
2023/04/24 15:40:54;;;;;;;8.85;2.58;;;;;;;;;;6188951;23;20091;-89
2023/04/24 15:43:41;;;;;;;12.93;3.45;;;;;;;;;;6213152;23;20796;-87
2023/04/24 15:46:25;;;;;;;17.13;3.20;;;;;;;;;;6170346;23;20020;-88
2023/04/24 15:49:10;;;;;;;13.73;3.63;;;;;;;;;;6170158;23;20031;-88
2023/04/24 15:51:55;;;;;;;13.60;3.25;;;;;;;;;;6171155;23;20024;-89
2023/04/24 15:54:40;;;;;;;9.38;3.78;;;;;;;;;;6190810;23;20075;-88
2023/04/24 15:57:25;;;;;;;11.20;3.30;;;;;;;;;;6190162;23;20015;-88
2023/04/24 16:00:10;;;;;;;9.82;2.47;;;;;;;;;;6213615;23;20051;-89
2023/04/24 16:02:54;;;;;;;13.55;2.80;;;;;;;;;;6191321;23;20023;-88
2023/04/24 16:05:39;;;;;;;11.02;3.03;;;;;;;;;;6190234;23;20096;-89
2023/04/24 16:08:24;;;;;;;8.70;3.63;;;;;;;;;;6212715;23;20019;-88
2023/04/24 16:11:09;;;;;;;11.30;2.70;;;;;;;;;;6191786;23;20027;-89
2023/04/24 16:13:53;;;;;;;11.50;2.88;;;;;;;;;;6214295;23;20020;-87
2023/04/24 16:16:38;;;;;;;11.77;3.03;;;;;;;;;;6213784;23;20063;-88
2023/04/24 16:19:22;;;;;;;11.07;3.40;;;;;;;;;;6191518;23;20014;-89
2023/04/24 16:22:07;;;;;;;15.00;3.78;;;;;;;;;;6214361;23;20014;-90
2023/04/24 16:24:51;;;;;;;11.27;3.40;;;;;;;;;;6192624;23;20035;-89